Current Weather Conditions: station 44040

sailwx.info

Wind from 020 at 3 knots gusting 3

Air temperature 22.3° C
Dewpoint 19.1° C

Last reported at 2020-Aug-06 08:45 UTC.
Time now 2020-Aug-06 10:23 UTC

Location: N 41°00' W 073°36'.
View on Google Maps.

See reports from other nearby stations

  
Tides and Currents Weather Stations Pressure Air Temp Water Temp Dewpoint Dewpoint Depression Visibility Wind Speed Wind Dir Waves Ship Positions
date/time (UTC)wind fromknots sea level pressurealtimeterstation pressurevisibilityair tempwater tempwave heightnotes
2020-Aug-06 08:45 020 3 gusting 3 22.3
2020-Aug-06 07:45 22.3
2020-Aug-06 06:45 22.6
2020-Aug-06 05:45 22.9
2020-Aug-06 04:45 220 1 gusting 3 23.2
2020-Aug-06 03:45 220 1 gusting 3 23.9
2020-Aug-06 02:45 200 3 gusting 3 24.3
2020-Aug-06 01:45 250 1 gusting 1 24.6
2020-Aug-06 00:45 280 5 gusting 5 25.1
2020-Aug-05 23:45 290 7 gusting 11 26.3
2020-Aug-05 22:45 280 11 gusting 13 27.3
2020-Aug-05 21:45 260 11 gusting 17 27.8
2020-Aug-05 18:45 220 5 gusting 7 27.4
2020-Aug-05 17:45 230 1 gusting 3 27.3
2020-Aug-05 15:45 220 3 gusting 3 25.4
2020-Aug-05 14:45 210 3 gusting 5 24.7
2020-Aug-05 12:45 210 1 gusting 3 23.2
2020-Aug-05 11:45 180 1 gusting 3 22.7
2020-Aug-05 10:45 22.9
2020-Aug-05 09:45 22.3
2020-Aug-05 08:45 22.5
2020-Aug-05 07:45 150 1 gusting 3 22.7
2020-Aug-05 06:45 260 1 gusting 3 22.9
2020-Aug-05 05:45 200 3 gusting 5 22.9
2020-Aug-05 03:45 190 7 gusting 9 23.2
2020-Aug-05 02:45 190 7 gusting 7 23.5
2020-Aug-05 01:45 220 7 gusting 9 23.6
2020-Aug-05 00:45 230 13 gusting 19 24.6
2020-Aug-04 20:00 210 23 gusting 36 23.3
2020-Aug-04 19:00 160 27 gusting 44 22.8
2020-Aug-04 18:00 150 31 gusting 54 24.5
2020-Aug-04 16:45 120 27 gusting 44 25.5
2020-Aug-04 15:45 120 21 gusting 34 25.7
2020-Aug-04 15:00 120 15 gusting 23 25.9
2020-Aug-04 14:00 140 15 gusting 21 26.1
2020-Aug-04 12:45 080 9 gusting 13 24.1
2020-Aug-04 12:00 070 9 gusting 13 23.7
2020-Aug-04 10:45 360 5 gusting 9 22.9
2020-Aug-04 10:00 070 11 gusting 13 23.3